• Join FlightAware (Why Join?)
  • Login
  • US Flag 
04:09PM EDT


 

Airport Tracker/Info


-or-


 

Live Flight TrackerFlight Track Log ✈ UAL44 ✈ 05-Apr-2013 ✈ KEWR - LIMC / MXP

Flight Track Log - Related Links

Times and Time Zones

All times are in EDT time to prevent confusion due to time zone crossing. See the UAL44 flight status page for this flight to view local times or setup timezone preferences in your user account.

Time Position Orientation Groundspeed Altitude Reporting Facility
EDT Latitude Longitude Course Direction KTS MPH feet Rate Location/Type
07:15PM 40.7570 -74.1100 28° Northeast 212 244 3,900  Level FlightAware
07:16PM 40.7850 -74.0880 31° Northeast 246 283 4,700 1,560 Climbing FlightAware
07:16PM 40.8000 -74.0740 35° Northeast 262 302 5,100 1,560 Climbing FlightAware
07:16PM 40.8100 -74.0530 58° Northeast 280 322 5,500 1,200 Climbing FlightAware
07:17PM 40.8000 -73.9860 101° East 292 336 6,200 1,380 Climbing FlightAware
07:17PM 40.7930 -73.9630 112° Southeast 291 335 6,800 2,640 Climbing FlightAware
07:18PM 40.8030 -73.9100 76° East 293 337 8,200 2,700 Climbing FlightAware
07:18PM 40.8190 -73.8720 61° Northeast 298 343 9,300 2,100 Climbing FlightAware
07:19PM 40.8500 -73.7980 61° Northeast 307 353 10,700 1,620 Climbing FlightAware
07:19PM 40.8719 -73.7664 47° Northeast 308 354 11,100 1,080 Climbing FlightAware ADS-B
07:20PM 40.9081 -73.7224 43° Northeast 353 406 11,600 1,440 Climbing FlightAware ADS-B
07:20PM 40.9535 -73.6663 43° Northeast 353 406 12,700 2,040 Climbing FlightAware ADS-B
07:21PM 41.0060 -73.6020 43° Northeast 411 473 14,200 2,340 Climbing FlightAware
07:21PM 41.0341 -73.5674 43° Northeast 353 406 15,000 1,560 Climbing FlightAware ADS-B
07:22PM 41.1099 -73.4743 43° Northeast 432 497 16,100 1,080 Climbing FlightAware ADS-B
07:23PM 41.1980 -73.3660 43° Northeast 446 513 17,200 1,860 Climbing FlightAware
07:24PM 41.2277 -73.3289 43° Northeast 466 536 18,500 3,120 Climbing FlightAware ADS-B
07:24PM 41.2771 -73.2676 43° Northeast 468 539 19,500 1,920 Climbing FlightAware ADS-B
07:25PM 41.3609 -73.1615 44° Northeast 477 549 21,200 540 Climbing FlightAware ADS-B
07:26PM 41.4290 -73.0790 42° Northeast 482 555 20,500 -480 Descending FlightAware
07:26PM 41.4840 -73.0100 43° Northeast 482 555 20,500  Level FlightAware
07:27PM 41.5400 -72.9410 43° Northeast 482 555 20,500  Level FlightAware
07:28PM 41.5950 -72.8710 44° Northeast 482 555 20,500 3,660 Level FlightAware
07:28PM 41.5950 -72.6530 90° East 25,900 6,000 Climbing FlightAware
07:29PM 41.6397 -72.5344 75° East 524 603 26,800 1,800 Climbing Boston Center
07:30PM 41.6990 -72.2770 70° East 545 627 29,400 1,800 Climbing FlightAware
07:31PM 41.7290 -72.1340 74° East 545 627 30,400 1,500 Climbing FlightAware
07:32PM 41.7610 -71.9780 75° East 544 626 31,600 1,200 Climbing FlightAware
07:33PM 41.8040 -71.7630 75° East 547 629 32,800 720 Climbing FlightAware
07:33PM 41.8300 -71.6320 75° East 552 635 33,000 120 Climbing FlightAware
07:34PM 41.8590 -71.4840 75° East 559 643 33,000  Level FlightAware
07:35PM 41.8860 -71.3450 75° East 564 649 33,000  Level FlightAware
07:35PM 41.9110 -71.2120 76° East 569 655 33,000  Level FlightAware
07:36PM 41.9410 -71.0550 76° East 573 659 33,000  Level FlightAware
07:37PM 41.9700 -70.9040 75° East 576 663 33,000  Level FlightAware
07:38PM 41.9970 -70.7630 76° East 578 665 33,000  Level FlightAware
07:38PM 42.0240 -70.6180 76° East 578 665 33,000  Level FlightAware
07:39PM 42.0500 -70.4740 76° East 580 667 33,000  Level FlightAware
07:40PM 42.0790 -70.3200 76° East 582 670 33,000  Level FlightAware
07:40PM 42.1080 -70.1640 76° East 582 670 33,000  Level FlightAware
07:41PM 42.1260 -70.0620 77° East 584 672 33,000  Level FlightAware
07:42PM 42.1580 -69.8810 77° East 588 677 33,000  Level FlightAware
07:43PM 42.1870 -69.7230 76° East 593 682 33,000  Level FlightAware
07:43PM 42.2120 -69.5790 77° East 595 685 33,000  Level FlightAware
07:44PM 42.2410 -69.4130 77° East 598 688 33,000  Level FlightAware
07:45PM 42.2630 -69.2840 77° East 598 688 33,000  Level FlightAware
07:45PM 42.2930 -69.1140 77° East 600 690 33,000  Level FlightAware
07:46PM 42.3180 -68.9690 77° East 602 693 33,000  Level FlightAware
07:47PM 42.3460 -68.8030 77° East 605 696 33,000  Level FlightAware
07:47PM 42.3710 -68.6550 77° East 607 699 33,000  Level FlightAware
07:48PM 42.3950 -68.5090 77° East 608 700 33,000  Level FlightAware
07:49PM 42.4200 -68.3540 78° East 610 702 33,000  Level FlightAware
07:50PM 42.4450 -68.2080 77° East 610 702 33,000  Level FlightAware
07:50PM 42.4700 -68.0460 78° East 609 701 33,000  Level FlightAware
07:51PM 42.4950 -67.9010 77° East 610 702 33,000  Level FlightAware
07:52PM 42.5160 -67.7740 77° East 610 702 33,000  Level FlightAware
07:52PM 42.5380 -67.6470 77° East 610 702 33,000  Level FlightAware
07:53PM 42.5650 -67.4880 77° East 610 702 33,000  Level FlightAware
07:54PM 42.5870 -67.3610 77° East 610 702 33,000  Level FlightAware
07:54PM 42.6080 -67.2340 77° East 610 702 33,000  Level FlightAware
07:55PM 42.6300 -67.1070 77° East 610 702 33,000  Level FlightAware
07:56PM 42.6510 -66.9800 77° East 610 702 33,000  Level FlightAware
07:57PM 42.6780 -66.8210 77° East 610 702 33,000  Level FlightAware
07:57PM 42.8110 -66.4930 61° Northeast 619 712 33,000  Level FlightAware
07:58PM 42.8680 -66.3340 64° Northeast 619 712 33,000  Level FlightAware
07:59PM 42.9180 -66.1960 64° Northeast 616 709 33,000  Level FlightAware
07:59PM 42.9680 -66.0530 64° Northeast 616 709 33,000  Level FlightAware
08:00PM 43.0230 -65.8960 64° Northeast 617 710 33,000  Level FlightAware
08:01PM 43.0800 -65.7350 64° Northeast 615 708 33,000  Level FlightAware
08:02PM 43.1280 -65.5950 65° Northeast 615 708 33,000  Level FlightAware
08:02PM 43.1770 -65.4550 64° Northeast 613 705 33,000  Level FlightAware
08:03PM 43.2260 -65.3130 65° Northeast 615 708 33,000  Level FlightAware
08:04PM 43.2800 -65.1560 65° Northeast 613 705 33,000  Level FlightAware
08:04PM 43.3280 -65.0140 65° Northeast 613 705 33,000  Level FlightAware
08:05PM 43.3830 -64.8520 65° Northeast 612 704 33,000  Level FlightAware
08:06PM 43.4490 -64.6580 65° Northeast 612 704 33,000  Level FlightAware
08:07PM 43.4900 -64.5340 65° Northeast 610 702 33,000  Level FlightAware
08:07PM 43.5270 -64.4240 65° Northeast 610 702 33,000  Level FlightAware
08:08PM 43.5680 -64.3040 65° Northeast 610 702 33,000  Level FlightAware
08:09PM 43.6080 -64.1840 65° Northeast 610 702 33,000  Level FlightAware
08:09PM 43.6490 -64.0640 65° Northeast 610 702 33,000  Level FlightAware
08:10PM 43.6890 -63.9440 65° Northeast 610 702 33,000  Level FlightAware
08:11PM 43.7400 -63.7940 65° Northeast 610 702 33,000  Level FlightAware
08:11PM 43.7800 -63.6730 65° Northeast 610 702 33,000  Level FlightAware
08:12PM 43.8210 -63.5530 65° Northeast 610 702 33,000  Level FlightAware
08:13PM 43.8720 -63.4020 65° Northeast 610 702 33,000  Level FlightAware
08:14PM 43.9120 -63.2810 65° Northeast 610 702 33,000  Level FlightAware
08:14PM 43.9530 -63.1610 65° Northeast 610 702 33,000  Level FlightAware
08:15PM 43.9930 -63.0400 65° Northeast 610 702 33,000  Level FlightAware
08:16PM 44.0340 -62.9190 65° Northeast 610 702 33,000  Level FlightAware
08:16PM 44.0740 -62.7980 65° Northeast 610 702 33,000 -660 Level FlightAware
08:17PM 44.1667 -62.3333 65° Northeast 590 679 32,100 -1,080 Descending Gander Center
08:17PM 44.2000 -62.2833 47° Northeast 580 667 31,900 -780 Descending Moncton Center
08:18PM 44.2667 -62.0667 67° East 580 667 31,100 -480 Descending Moncton Center
08:19PM 44.3167 -61.8500 72° East 570 656 31,000 -60 Descending Moncton Center
08:20PM 44.3833 -61.6667 63° Northeast 570 656 31,000  Level Moncton Center
08:21PM 44.4500 -61.4500 67° East 570 656 31,000  Level Moncton Center
08:22PM 44.5167 -61.2500 65° Northeast 580 667 31,000  Level Moncton Center
08:23PM 44.5667 -61.0333 72° East 580 667 31,000  Level Moncton Center
08:24PM 44.6333 -60.8333 65° Northeast 580 667 31,000  Level Moncton Center
08:25PM 44.6833 -60.6500 65° Northeast 580 667 31,000  Level Gander Center
08:25PM 44.6833 -60.6167 69° East 590 679 31,000  Level Moncton Center
08:26PM 44.7500 -60.4000 69° East 580 667 31,000  Level Moncton Center
08:27PM 44.8167 -60.2000 69° East 580 667 31,000  Level Moncton Center
08:28PM 44.8667 -60.0167 69° East 570 656 31,000 -420 Level Gander Center
08:30PM 44.9730 -59.7030 65° Northeast 565 650 29,900 -540 Descending FlightAware
08:31PM 45.0070 -59.5790 69° East 564 649 29,700 -540 Descending FlightAware
08:31PM 45.0480 -59.4290 69° East 556 640 29,200 -420 Descending FlightAware
08:32PM 45.1120 -59.1950 69° East 549 632 29,000 -120 Descending FlightAware
08:33PM 45.1430 -59.0810 69° East 549 632 29,000  Level FlightAware
08:34PM 45.1740 -58.9670 69° East 549 632 29,000  Level FlightAware
08:34PM 45.2190 -58.8030 69° East 29,000  Level FlightAware
08:35PM 45.2500 -58.6333 69° East 550 633 29,000  Level Gander Center
08:35PM 45.2500 -58.5500 90° East 550 633 29,000  Level Moncton Center
08:36PM 45.3167 -58.3500 65° Northeast 550 633 29,000  Level Moncton Center
08:37PM 45.3500 -58.1667 75° East 550 633 29,000  Level Gander Center
08:38PM 45.4167 -57.9500 66° East 550 633 29,000  Level Moncton Center
08:39PM 45.4833 -57.7333 66° East 550 633 29,000  Level Moncton Center
08:40PM 45.5167 -57.5333 73° East 550 633 29,000  Level Moncton Center
08:41PM 45.5667 -57.3167 73° East 550 633 29,000  Level Moncton Center
08:42PM 45.6167 -57.1167 72° East 550 633 29,000  Level Moncton Center
08:43PM 45.6500 -56.9667 72° East 560 644 29,000  Level Gander Center
08:45PM 45.7520 -56.6650 66° East 554 638 29,000  Level FlightAware
08:45PM 45.7870 -56.5030 73° East 552 635 29,000  Level FlightAware
08:46PM 45.8180 -56.3630 72° East 549 632 29,000  Level FlightAware
08:47PM 45.8500 -56.2150 73° East 545 627 29,000  Level FlightAware
08:48PM 45.8910 -56.0330 72° East 542 624 29,000  Level FlightAware
08:48PM 45.9170 -55.9170 72° East 542 624 29,000  Level FlightAware
08:49PM 45.9430 -55.8000 72° East 542 624 29,000  Level FlightAware
08:50PM 45.9700 -55.6840 71° East 542 624 29,000  Level FlightAware
08:50PM 45.9960 -55.5670 72° East 542 624 29,000  Level FlightAware
08:51PM 46.0220 -55.4500 72° East 542 624 29,000  Level FlightAware
08:51PM 46.0167 -55.2667 74° East 540 621 29,000  Level Gander Center
08:51PM 46.0167 -55.2500 74° East 540 621 29,000  Level Moncton Center
08:52PM 46.0990 -55.0290 75° East 543 625 29,000  Level FlightAware
08:53PM 46.1250 -54.9070 73° East 543 625 29,000  Level FlightAware
08:54PM 46.1700 -54.6800 74° East 539 620 29,000  Level FlightAware
08:55PM 46.2010 -54.5230 74° East 536 617 29,000  Level FlightAware
08:56PM 46.2270 -54.3930 74° East 535 616 29,000  Level FlightAware
08:56PM 46.2590 -54.2280 74° East 534 615 29,000  Level FlightAware
08:57PM 46.2920 -54.0590 74° East 530 610 29,000  Level FlightAware
08:58PM 46.3200 -53.9090 75° East 529 609 29,000  Level FlightAware
08:59PM 46.3460 -53.7740 74° East 526 605 29,000  Level FlightAware
08:59PM 46.3760 -53.6190 74° East 525 604 29,000  Level FlightAware
09:00PM 46.4010 -53.4820 75° East 523 602 29,000  Level FlightAware
09:01PM 46.4250 -53.3530 75° East 522 601 29,000  Level FlightAware
09:01PM 46.4540 -53.2000 75° East 521 600 29,000  Level FlightAware
09:02PM 46.4780 -53.0640 76° East 522 601 29,000  Level FlightAware
09:03PM 46.5070 -52.9100 75° East 522 601 29,000  Level FlightAware
09:03PM 46.5310 -52.7730 76° East 521 600 29,000  Level FlightAware
09:04PM 46.5580 -52.6240 75° East 520 598 29,000  Level FlightAware
09:05PM 46.5810 -52.4920 76° East 520 598 29,000  Level FlightAware
09:06PM 46.6060 -52.3540 75° East 520 598 29,000 540 Level FlightAware
09:06PM 46.6320 -52.2030 76° East 531 611 29,800 1,080 Climbing FlightAware
09:07PM 46.6570 -52.0630 75° East 537 618 30,600 1,260 Climbing FlightAware
09:08PM 46.6840 -51.9020 76° East 541 623 31,600 1,260 Climbing FlightAware
09:08PM 46.7090 -51.7580 76° East 542 624 32,400 1,200 Climbing FlightAware
09:09PM 46.7330 -51.6180 76° East 544 626 33,200 780 Climbing FlightAware
09:10PM 46.7600 -51.4570 76° East 544 626 33,600 240 Climbing FlightAware
09:11PM 46.7860 -51.3050 76° East 544 626 33,600  Level FlightAware
09:11PM 46.8070 -51.1840 76° East 544 626 33,600  Level FlightAware
09:12PM 46.8270 -51.0630 76° East 544 626 33,600  Level FlightAware
09:13PM 46.8480 -50.9410 76° East 544 626 33,600  Level FlightAware
09:14PM 46.8740 -50.7900 76° East 544 626 33,600  Level FlightAware
09:14PM 46.8950 -50.6680 76° East 544 626 33,600  Level FlightAware
09:15PM 46.9150 -50.5470 76° East 544 626 33,600  Level FlightAware
09:15PM 46.9310 -50.4550 76° East 544 626 33,600  Level FlightAware
09:16PM 46.9510 -50.3340 76° East 544 626 33,600  Level FlightAware
09:17PM 46.9720 -50.2120 76° East 544 626 33,600  Level FlightAware
09:17PM 46.9930 -50.0900 76° East 544 626 33,600  Level FlightAware
09:18PM 47.0190 -49.9380 76° East 544 626 33,600  Level FlightAware
09:19PM 47.0390 -49.8160 76° East 544 626 33,600 180 Level FlightAware
09:20PM 47.0833 -49.2667 76° East 540 621 34,000 180 Climbing Gander Center
09:21PM 47.1000 -49.0333 84° East 540 621 34,000  Level Gander Center
09:22PM 47.1333 -48.8333 76° East 540 621 34,000  Level Gander Center
09:23PM 47.1667 -48.6167 77° East 540 621 34,000  Level Gander Center
09:24PM 47.2000 -48.4167 76° East 530 610 34,000  Level Gander Center
09:25PM 47.2167 -48.1833 84° East 530 610 34,000  Level Gander Center
09:26PM 47.2500 -47.9833 76° East 530 610 34,000  Level Gander Center
09:27PM 47.2667 -47.7500 84° East 530 610 34,000  Level Gander Center
09:28PM 47.3167 -47.5333 71° East 530 610 34,000  Level Gander Center
09:29PM 47.3167 -47.3333 90° East 530 610 34,000  Level Gander Center
09:30PM 47.3667 -47.1333 70° East 520 598 34,000  Level Gander Center
09:32PM 47.3833 -46.7000 87° East 530 610 34,000  Level Gander Center
09:34PM 47.4200 -46.3975 80° East  Level FlightAware Approximate
09:41PM 47.5838 -44.9482 80° East  Level FlightAware Approximate
09:42PM 47.6057 -44.7405 81° East  Level FlightAware Approximate
09:43PM 47.6273 -44.5325 81° East  Level FlightAware Approximate
09:44PM 47.6484 -44.3244 81° East  Level FlightAware Approximate
09:45PM 47.6692 -44.1161 81° East  Level FlightAware Approximate
09:46PM 47.6896 -43.9077 82° East  Level FlightAware Approximate
09:47PM 47.7096 -43.6991 82° East  Level FlightAware Approximate
09:48PM 47.7293 -43.4903 82° East  Level FlightAware Approximate
09:49PM 47.7486 -43.2814 82° East  Level FlightAware Approximate
09:50PM 47.7674 -43.0724 82° East  Level FlightAware Approximate
09:51PM 47.7860 -42.8632 82° East  Level FlightAware Approximate
09:52PM 47.8041 -42.6538 83° East  Level FlightAware Approximate
09:53PM 47.8218 -42.4443 83° East  Level FlightAware Approximate
09:54PM 47.8392 -42.2346 83° East  Level FlightAware Approximate
09:55PM 47.8562 -42.0248 83° East  Level FlightAware Approximate
09:56PM 47.8728 -41.8149 83° East  Level FlightAware Approximate
09:57PM 47.8890 -41.6049 83° East  Level FlightAware Approximate
09:58PM 47.9049 -41.3947 84° East  Level FlightAware Approximate
09:59PM 47.9203 -41.1843 84° East  Level FlightAware Approximate
10:00PM 47.9354 -40.9739 84° East  Level FlightAware Approximate
10:01PM 47.9501 -40.7633 84° East  Level FlightAware Approximate
10:02PM 47.9644 -40.5527 84° East  Level FlightAware Approximate
10:03PM 47.9783 -40.3419 84° East  Level FlightAware Approximate
10:04PM 47.9918 -40.1310 84° East  Level FlightAware Approximate
10:05PM 48.0115 -39.9209 78° East  Level FlightAware Approximate
10:06PM 48.0414 -39.7136 78° East  Level FlightAware Approximate
10:07PM 48.0709 -39.5061 78° East  Level FlightAware Approximate
10:08PM 48.1001 -39.2984 78° East  Level FlightAware Approximate
10:09PM 48.1289 -39.0904 78° East  Level FlightAware Approximate
10:10PM 48.1573 -38.8822 78° East  Level FlightAware Approximate
10:11PM 48.1853 -38.6737 79° East  Level FlightAware Approximate
10:12PM 48.2130 -38.4650 79° East  Level FlightAware Approximate
10:13PM 48.2403 -38.2561 79° East  Level FlightAware Approximate
10:14PM 48.2672 -38.0470 79° East  Level FlightAware Approximate
10:15PM 48.2937 -37.8377 79° East  Level FlightAware Approximate
10:16PM 48.3198 -37.6281 79° East  Level FlightAware Approximate
10:17PM 48.3456 -37.4184 79° East  Level FlightAware Approximate
10:18PM 48.3709 -37.2084 80° East  Level FlightAware Approximate
10:19PM 48.3959 -36.9982 80° East  Level FlightAware Approximate
10:20PM 48.4206 -36.7878 80° East  Level FlightAware Approximate
10:21PM 48.4448 -36.5772 80° East  Level FlightAware Approximate
10:22PM 48.4686 -36.3664 80° East  Level FlightAware Approximate
10:23PM 48.4921 -36.1554 80° East  Level FlightAware Approximate
10:24PM 48.5151 -35.9443 81° East  Level FlightAware Approximate
10:25PM 48.5378 -35.7329 81° East  Level FlightAware Approximate
10:26PM 48.5601 -35.5213 81° East  Level FlightAware Approximate
10:27PM 48.5820 -35.3096 81° East  Level FlightAware Approximate
10:28PM 48.6035 -35.0977 81° East  Level FlightAware Approximate
10:29PM 48.6247 -34.8856 81° East  Level FlightAware Approximate
10:30PM 48.6454 -34.6733 82° East  Level FlightAware Approximate
10:31PM 48.6657 -34.4608 82° East  Level FlightAware Approximate
10:32PM 48.6857 -34.2482 82° East  Level FlightAware Approximate
10:33PM 48.7053 -34.0354 82° East  Level FlightAware Approximate
10:34PM 48.7244 -33.8224 82° East  Level FlightAware Approximate
10:35PM 48.7432 -33.6093 82° East  Level FlightAware Approximate
10:36PM 48.7616 -33.3961 82° East  Level FlightAware Approximate
10:37PM 48.7796 -33.1826 83° East  Level FlightAware Approximate
10:38PM 48.7972 -32.9691 83° East  Level FlightAware Approximate
10:39PM 48.8144 -32.7553 83° East  Level FlightAware Approximate
10:40PM 48.8312 -32.5415 83° East  Level FlightAware Approximate
10:41PM 48.8476 -32.3274 83° East  Level FlightAware Approximate
10:42PM 48.8637 -32.1133 83° East  Level FlightAware Approximate
10:43PM 48.8793 -31.8990 84° East  Level FlightAware Approximate
10:44PM 48.8945 -31.6846 84° East  Level FlightAware Approximate
10:45PM 48.9093 -31.4700 84° East  Level FlightAware Approximate
10:46PM 48.9238 -31.2553 84° East  Level FlightAware Approximate
10:47PM 48.9378 -31.0405 84° East  Level FlightAware Approximate
10:48PM 48.9514 -30.8256 84° East  Level FlightAware Approximate
10:49PM 48.9646 -30.6106 85° East  Level FlightAware Approximate
10:50PM 48.9775 -30.3954 85° East  Level FlightAware Approximate
10:51PM 48.9899 -30.1802 85° East  Level FlightAware Approximate
10:52PM 49.0050 -29.9655 77° East  Level FlightAware Approximate
10:53PM 49.0355 -29.7544 77° East  Level FlightAware Approximate
10:54PM 49.0657 -29.5429 78° East  Level FlightAware Approximate
10:55PM 49.0955 -29.3313 78° East  Level FlightAware Approximate
10:56PM 49.1248 -29.1193 78° East  Level FlightAware Approximate
10:57PM 49.1538 -28.9071 78° East  Level FlightAware Approximate
10:58PM 49.1824 -28.6947 78° East  Level FlightAware Approximate
10:59PM 49.2106 -28.4820 78° East  Level FlightAware Approximate
11:00PM 49.2384 -28.2691 79° East  Level FlightAware Approximate
11:01PM 49.2658 -28.0559 79° East  Level FlightAware Approximate
11:02PM 49.2929 -27.8425 79° East  Level FlightAware Approximate
11:03PM 49.3195 -27.6289 79° East  Level FlightAware Approximate
11:04PM 49.3457 -27.4151 79° East  Level FlightAware Approximate
11:05PM 49.3716 -27.2010 79° East  Level FlightAware Approximate
11:06PM 49.3970 -26.9867 80° East  Level FlightAware Approximate
11:07PM 49.4221 -26.7721 80° East  Level FlightAware Approximate
11:08PM 49.4467 -26.5574 80° East  Level FlightAware Approximate
11:09PM 49.4710 -26.3424 80° East  Level FlightAware Approximate
11:10PM 49.4948 -26.1273 80° East  Level FlightAware Approximate
11:11PM 49.5183 -25.9119 80° East  Level FlightAware Approximate
11:12PM 49.5414 -25.6963 81° East  Level FlightAware Approximate
11:13PM 49.5640 -25.4805 81° East  Level FlightAware Approximate
11:14PM 49.5863 -25.2645 81° East  Level FlightAware Approximate
11:15PM 49.6081 -25.0484 81° East  Level FlightAware Approximate
11:16PM 49.6296 -24.8320 81° East  Level FlightAware Approximate
11:17PM 49.6506 -24.6154 81° East  Level FlightAware Approximate
11:18PM 49.6713 -24.3987 82° East  Level FlightAware Approximate
11:19PM 49.6915 -24.1817 82° East  Level FlightAware Approximate
11:20PM 49.7113 -23.9646 82° East  Level FlightAware Approximate
11:21PM 49.7308 -23.7474 82° East  Level FlightAware Approximate
11:22PM 49.7498 -23.5299 82° East  Level FlightAware Approximate
11:23PM 49.7684 -23.3123 82° East  Level FlightAware Approximate
11:24PM 49.7866 -23.0945 83° East  Level FlightAware Approximate
11:25PM 49.8044 -22.8766 83° East  Level FlightAware Approximate
11:26PM 49.8218 -22.6584 83° East  Level FlightAware Approximate
11:27PM 49.8388 -22.4402 83° East  Level FlightAware Approximate
11:28PM 49.8553 -22.2218 83° East  Level FlightAware Approximate
11:29PM 49.8715 -22.0032 83° East  Level FlightAware Approximate
11:30PM 49.8872 -21.7845 84° East  Level FlightAware Approximate
11:31PM 49.9026 -21.5656 84° East  Level FlightAware Approximate
11:32PM 49.9175 -21.3466 84° East  Level FlightAware Approximate
11:33PM 49.9320 -21.1275 84° East  Level FlightAware Approximate
11:34PM 49.9461 -20.9083 84° East  Level FlightAware Approximate
11:35PM 49.9598 -20.6889 84° East  Level FlightAware Approximate
11:36PM 49.9730 -20.4694 85° East  Level FlightAware Approximate
11:37PM 49.9859 -20.2498 85° East  Level FlightAware Approximate
11:38PM 49.9983 -20.0301 85° East  Level FlightAware Approximate
11:39PM 50.0013 -19.8096 89° East  Level FlightAware Approximate
11:40PM 50.0024 -19.5889 89° East  Level FlightAware Approximate
11:41PM 50.0031 -19.3683 90° East  Level FlightAware Approximate
11:42PM 50.0033 -19.1477 90° East  Level FlightAware Approximate
11:43PM 50.0032 -18.9270 90° East  Level FlightAware Approximate
11:44PM 50.0026 -18.7064 90° East  Level FlightAware Approximate
11:45PM 50.0016 -18.4858 90° East  Level FlightAware Approximate
11:46PM 50.0001 -18.2652 90° East  Level FlightAware Approximate
11:47PM 49.9983 -18.0446 91° East  Level FlightAware Approximate
11:48PM 49.9961 -17.8240 91° East  Level FlightAware Approximate
11:49PM 49.9934 -17.6035 91° East  Level FlightAware Approximate
11:50PM 49.9903 -17.3829 91° East  Level FlightAware Approximate
11:51PM 49.9868 -17.1624 91° East  Level FlightAware Approximate
11:52PM 49.9829 -16.9419 92° East  Level FlightAware Approximate
11:53PM 49.9789 -16.7215 92° East  Level FlightAware Approximate
11:54PM 49.9745 -16.5011 92° East  Level FlightAware Approximate
11:55PM 49.9697 -16.2807 92° East  Level FlightAware Approximate
11:56PM 49.9644 -16.0604 92° East  Level FlightAware Approximate
11:57PM 49.9588 -15.8401 92° East  Level FlightAware Approximate
11:58PM 49.9527 -15.6199 92° East  Level FlightAware Approximate
11:59PM 49.9462 -15.3997 93° East  Level FlightAware Approximate
12:00AM 49.9393 -15.1797 93° East  Level FlightAware Approximate
12:01AM 49.9321 -14.9596 93° East  Level FlightAware Approximate
12:02AM 49.9249 -14.7396 93° East  Level FlightAware Approximate
12:03AM 49.9173 -14.5197 93° East  Level FlightAware Approximate
12:04AM 49.9092 -14.2998 93° East  Level FlightAware Approximate
12:05AM 49.9008 -14.0800 93° East  Level FlightAware Approximate
12:06AM 49.8919 -13.8603 93° East  Level FlightAware Approximate
12:07AM 49.8827 -13.6406 94° East  Level FlightAware Approximate
12:08AM 49.8730 -13.4211 94° East  Level FlightAware Approximate
12:09AM 49.8629 -13.2016 94° East  Level FlightAware Approximate
12:10AM 49.8524 -12.9823 94° East  Level FlightAware Approximate
12:11AM 49.8415 -12.7630 94° East  Level FlightAware Approximate
12:12AM 49.8301 -12.5438 95° East  Level FlightAware Approximate
12:13AM 49.8184 -12.3248 95° East  Level FlightAware Approximate
12:14AM 49.8062 -12.1058 95° East  Level FlightAware Approximate
12:15AM 49.7936 -11.8870 95° East  Level FlightAware Approximate
12:16AM 49.7807 -11.6683 95° East  Level FlightAware Approximate
12:17AM 49.7673 -11.4496 95° East  Level FlightAware Approximate
12:18AM 49.7534 -11.2312 96° East  Level FlightAware Approximate
12:19AM 49.7392 -11.0128 96° East  Level FlightAware Approximate
12:20AM 49.7246 -10.7946 96° East  Level FlightAware Approximate
12:21AM 49.7095 -10.5765 96° East  Level FlightAware Approximate
12:22AM 49.6941 -10.3585 96° East  Level FlightAware Approximate
12:23AM 49.6782 -10.1407 96° East  Level FlightAware Approximate
12:24AM 49.6620 -9.9230 97° East  Level FlightAware Approximate
12:25AM 49.6453 -9.7055 97° East  Level FlightAware Approximate
12:26AM 49.6282 -9.4881 97° East  Level FlightAware Approximate
12:27AM 49.6107 -9.2709 97° East  Level FlightAware Approximate
12:28AM 49.5928 -9.0538 97° East  Level FlightAware Approximate
12:29AM 49.5745 -8.8369 97° East  Level FlightAware Approximate
12:30AM 49.5558 -8.6202 97° East  Level FlightAware Approximate
12:30AM 49.2410 -9.0620 98° East 490 564 34,000  Level FlightAware
12:31AM 49.5367 -8.4036 98° East  Level FlightAware Approximate
12:31AM 49.2020 -8.8140 103° East 491 565 34,000  Level FlightAware
12:32AM 49.1770 -8.6620 104° East 491 565 34,000  Level FlightAware
12:32AM 49.1550 -8.5240 104° East 489 563 34,000  Level FlightAware
12:33AM 49.1300 -8.3740 104° East 490 564 34,000  Level FlightAware
12:34AM 49.1020 -8.2440 108° East 495 570 34,000  Level FlightAware
12:34AM 49.0650 -8.1160 114° Southeast 499 574 34,000  Level FlightAware
12:35AM 49.0210 -7.9710 115° Southeast 499 574 34,000  Level FlightAware
12:36AM 48.9890 -7.8650 115° Southeast 500 575 34,000  Level FlightAware
12:37AM 48.9390 -7.6970 114° Southeast 499 574 34,000  Level FlightAware
12:37AM 48.9000 -7.5660 114° Southeast 500 575 34,000  Level FlightAware
12:38AM 48.8620 -7.4390 114° Southeast 501 577 34,000  Level FlightAware
12:39AM 48.8180 -7.2970 115° Southeast 502 578 34,000  Level FlightAware
12:39AM 48.7800 -7.1740 115° Southeast 502 578 34,000  Level FlightAware
12:40AM 48.7350 -7.0270 115° Southeast 502 578 34,000  Level FlightAware
12:41AM 48.6950 -6.8980 115° Southeast 501 577 34,000  Level FlightAware
12:43AM 48.6481 -6.5108 100° East  Level Estimated
12:44AM 48.6220 -6.2998 101° East  Level Estimated
12:45AM 48.5955 -6.0891 101° East  Level Estimated
12:46AM 48.5686 -5.8787 101° East  Level Estimated
12:47AM 48.5413 -5.6684 101° East  Level Estimated
12:48AM 48.5137 -5.4584 101° East  Level Estimated
12:48AM 48.2770 -5.5920 101° East 493 567 34,000  Level FlightAware
12:50AM 48.2341 -5.2249 100° East  Level Estimated
12:51AM 48.2090 -5.0154 100° East  Level Estimated
12:52AM 48.1836 -4.8061 100° East  Level Estimated
12:52AM 47.9950 -4.7480 100° East 500 575 34,000  Level FlightAware
12:53AM 47.9490 -4.6140 117° Southeast 501 577 34,000  Level FlightAware
12:54AM 47.9020 -4.4750 117° Southeast 503 579 34,000  Level FlightAware
12:54AM 47.8580 -4.3490 117° Southeast 504 580 34,000  Level FlightAware
12:55AM 47.8140 -4.2240 118° Southeast 505 581 34,000  Level FlightAware
12:56AM 47.7670 -4.0880 117° Southeast 505 581 34,000  Level FlightAware
12:57AM 47.7240 -3.9660 118° Southeast 505 581 34,000  Level FlightAware
12:57AM 47.6750 -3.8270 118° Southeast 503 579 34,000  Level FlightAware
12:58AM 47.6320 -3.7050 118° Southeast 504 580 34,000  Level FlightAware
12:59AM 47.5840 -3.5700 118° Southeast 502 578 34,000  Level FlightAware
12:59AM 47.5430 -3.4550 118° Southeast 501 577 34,000  Level FlightAware
01:00AM 47.4970 -3.3300 119° Southeast 499 574 34,000  Level FlightAware
01:01AM 47.4470 -3.1910 118° Southeast 497 572 34,000  Level FlightAware
01:01AM 47.4030 -3.0700 118° Southeast 496 571 34,000  Level FlightAware
01:02AM 47.3570 -2.9440 118° Southeast 494 568 34,000  Level FlightAware
01:03AM 47.3120 -2.8230 119° Southeast 491 565 34,000  Level FlightAware
01:04AM 47.2690 -2.7060 118° Southeast 488 562 34,000  Level FlightAware
01:04AM 47.2200 -2.5720 118° Southeast 486 559 34,000  Level FlightAware
01:05AM 47.1760 -2.4570 119° Southeast 484 557 34,000  Level FlightAware
01:06AM 47.1330 -2.3410 119° Southeast 482 555 34,000  Level FlightAware
01:06AM 47.1010 -2.2560 119° Southeast 481 554 34,000  Level FlightAware
01:07AM 47.0580 -2.1430 119° Southeast 479 551 34,000  Level FlightAware
01:08AM 47.0110 -2.0190 119° Southeast 479 551 34,000  Level FlightAware
01:08AM 46.9680 -1.9060 119° Southeast 479 551 34,000  Level FlightAware
01:09AM 46.9170 -1.7750 120° Southeast 477 549 34,000  Level FlightAware
01:10AM 46.8750 -1.6650 119° Southeast 477 549 34,000  Level FlightAware
01:10AM 46.8310 -1.5530 120° Southeast 474 545 34,000  Level FlightAware
01:11AM 46.7840 -1.4300 119° Southeast 472 543 34,000  Level FlightAware
01:12AM 46.7400 -1.3180 120° Southeast 469 540 34,000  Level FlightAware
01:12AM 46.6920 -1.1950 120° Southeast 466 536 34,000 480 Level FlightAware
01:13AM 46.6490 -1.0870 120° Southeast 460 529 34,700 660 Climbing FlightAware
01:14AM 46.6020 -0.9670 120° Southeast 474 545 35,000 180 Climbing FlightAware
01:15AM 46.5570 -0.8560 120° Southeast 478 550 35,000  Level FlightAware
01:15AM 46.5160 -0.7280 115° Southeast 464 534 35,000  Level FlightAware
01:16AM 46.4930 -0.5810 103° East 459 528 35,000  Level FlightAware
01:17AM 46.4800 -0.4780 100° East 459 528 35,000  Level FlightAware
01:18AM 46.4600 -0.3240 101° East 455 524 35,000  Level FlightAware
01:18AM 46.4460 -0.2140 100° East 456 525 35,000  Level FlightAware
01:19AM 46.4260 -0.0730 102° East 35,000  Level FlightAware
01:20AM 46.4110 0.0430 101° East 456 525 35,000  Level FlightAware
01:20AM 46.3960 0.1610 100° East 456 525 35,000  Level FlightAware
01:21AM 46.3790 0.2780 102° East 458 527 35,000  Level FlightAware
01:22AM 46.3640 0.4040 100° East 458 527 35,000  Level FlightAware
01:22AM 46.3430 0.5440 102° East 458 527 35,000  Level FlightAware
01:24AM 46.3130 0.7660 101° East 459 528 35,000  Level FlightAware
01:24AM 46.2950 0.8970 101° East 459 528 35,000  Level FlightAware
01:25AM 46.2770 1.0230 102° East 459 528 35,000  Level FlightAware
01:26AM 46.2600 1.1460 101° East 459 528 35,000  Level FlightAware
01:26AM 46.2430 1.2660 102° East 458 527 35,000  Level FlightAware
01:27AM 46.2250 1.3890 102° East 456 525 35,000  Level FlightAware
01:28AM 46.2100 1.5140 100° East 456 525 35,000  Level FlightAware
01:29AM 46.1860 1.6560 104° East 456 525 35,000  Level FlightAware
01:29AM 46.1670 1.7870 102° East 455 524 35,000  Level FlightAware
01:30AM 46.1490 1.9120 102° East 453 521 35,000  Level FlightAware
01:31AM 46.1330 2.0200 102° East 451 519 35,000  Level FlightAware
01:31AM 46.1130 2.1560 102° East 449 517 35,000  Level FlightAware
01:32AM 46.0950 2.2730 102° East 447 514 35,000  Level FlightAware
01:33AM 46.0770 2.3900 102° East 448 516 35,000  Level FlightAware
01:33AM 46.0570 2.5210 102° East 451 519 35,000  Level FlightAware
01:34AM 46.0400 2.6380 102° East 453 521 35,000  Level FlightAware
01:35AM 46.0190 2.7700 103° East 455 524 35,000  Level FlightAware
01:36AM 46.0010 2.8860 103° East 456 525 35,000  Level FlightAware
01:36AM 45.9820 3.0080 103° East 459 528 35,000  Level FlightAware
01:37AM 45.9610 3.1390 103° East 460 529 35,000  Level FlightAware
01:38AM 45.9420 3.2630 102° East 461 531 35,000  Level FlightAware
01:38AM 45.9230 3.3800 103° East 461 531 35,000  Level FlightAware
01:39AM 45.9020 3.5130 103° East 461 531 35,000  Level FlightAware
01:40AM 45.8820 3.6320 104° East 461 531 35,000  Level FlightAware
01:40AM 45.8570 3.7670 105° East 461 531 35,000  Level FlightAware
01:41AM 45.8320 3.8740 109° East 460 529 35,000  Level FlightAware
01:42AM 45.7970 4.0080 110° East 460 529 35,000  Level FlightAware
01:43AM 45.7680 4.1150 111° Southeast 459 528 35,000  Level FlightAware
01:43AM 45.7360 4.2350 111° Southeast 459 528 35,000  Level FlightAware
01:44AM 45.7030 4.3580 111° Southeast 457 526 35,000  Level FlightAware
01:45AM 45.6700 4.4790 111° Southeast 457 526 35,000  Level FlightAware
01:46AM 45.6320 4.6190 111° Southeast 456 525 35,000  Level FlightAware
01:47AM 45.5840 4.7990 111° Southeast 455 524 35,000  Level FlightAware
01:47AM 45.5450 4.9420 111° Southeast 455 524 35,000  Level FlightAware
01:48AM 45.5120 5.0630 111° Southeast 455 524 35,000  Level FlightAware
01:49AM 45.4770 5.1900 111° Southeast 455 524 35,000  Level FlightAware
01:50AM 45.4360 5.3370 112° Southeast 455 524 35,000  Level FlightAware
01:50AM 45.4040 5.4530 111° Southeast 452 520 35,000  Level FlightAware
01:51AM 45.3690 5.5780 112° Southeast 452 520 35,000  Level FlightAware
01:52AM 45.3440 5.6660 112° Southeast 452 520 35,000  Level FlightAware
01:53AM 45.2830 5.8820 112° Southeast 453 521 35,000 -1,140 Level FlightAware
01:56AM 45.3456 6.3524 79° East  Level Estimated
01:57AM 45.3710 6.5474 79° East  Level Estimated
01:58AM 45.3960 6.7426 80° East  Level Estimated
01:59AM 45.4207 6.9379 80° East  Level Estimated
02:00AM 45.4451 7.1333 80° East  Level Estimated
02:00AM 45.0590 7.0770 80° East 407 468 25,400  Level FlightAware
02:01AM 45.4691 7.3290 80° East  Level Estimated
02:01AM 45.0370 7.2230 102° East 426 490 23,500  Level FlightAware
02:02AM 45.0210 7.3330 102° East 419 482 22,100 -1,980 Descending FlightAware
02:03AM 45.0040 7.4490 102° East 408 470 20,700 -1,560 Descending FlightAware
02:03AM 44.9900 7.5520 101° East 395 455 19,900 -2,100 Descending FlightAware
02:06AM 44.9887 7.9340 39° Northeast  Level FlightAware Approximate
02:07AM 45.0893 8.0703 45° Northeast  Level FlightAware Approximate
02:08AM 45.1920 8.2035 40° Northeast  Level FlightAware Approximate
02:08AM 45.1840 8.2310 40° Northeast 312 359 9,200  Level FlightAware
02:09AM 45.1990 8.2760 65° Northeast 300 345 8,300 -2,280 Descending FlightAware
02:09AM 45.2070 8.3030 67° East 295 339 7,700 -2,280 Descending FlightAware
02:09AM 45.2240 8.3540 65° Northeast 283 326 6,600 -2,040 Descending FlightAware
02:10AM 45.2390 8.3990 65° Northeast 272 313 5,700 -1,740 Descending FlightAware
02:11AM 45.2620 8.4710 66° East 265 305 4,600 -1,320 Descending FlightAware
02:11AM 45.2670 8.4860 65° Northeast 260 299 4,600 -420 Level FlightAware
02:12AM 45.3100 8.5800 57° Northeast 239 275 4,100 -300 Descending FlightAware
02:12AM 45.3290 8.6140 52° Northeast 240 276 4,100  Level FlightAware
02:13AM 45.3490 8.6480 50° Northeast 241 277 4,100 -360 Level FlightAware
02:15AM 45.5767 8.7127 11° North  Level Estimated
02:16AM 45.6306 8.7281 11° North  Level Estimated
02:17AM 45.6306 8.7281 170° South  Level Estimated
02:18AM 45.6306 8.7281 170° South  Level Estimated
02:18AM 45.5650 8.7930 170° South 163 188 2,300  Level FlightAware
02:21AM 45.6167 8.7167 49° Northeast  Level FlightAware Approximate